Time;durP1;ratioP1;P1;durP2;ratioP2;P2;SDS_P1;SDS_P2;PMS_P1;PMS_P2;Temp;Humidity;BMP_temperature;BMP_pressure;BME280_temperature;BME280_humidity;BME280_pressure;Samples;Min_cycle;Max_cycle;Signal;HPM_P1;HPM_P2
2021/12/30 00:01:08;;;;;;;379.92;29.60;;;7.50;99.90;;;;;;5000696;28;20030;-63
2021/12/30 00:03:34;;;;;;;54.35;15.30;;;7.50;99.90;;;;;;4998935;28;20026;-64
2021/12/30 00:06:00;;;;;;;61.35;15.27;;;7.50;99.90;;;;;;5000641;28;20018;-63
2021/12/30 00:08:26;;;;;;;97.68;17.33;;;7.50;99.90;;;;;;5000741;28;20031;-63
2021/12/30 00:10:52;;;;;;;62.25;15.10;;;7.40;99.90;;;;;;5001664;28;20030;-64
2021/12/30 00:13:19;;;;;;;41.05;14.38;;;7.40;99.90;;;;;;5003052;28;20413;-63
2021/12/30 00:15:44;;;;;;;40.92;13.20;;;7.40;99.90;;;;;;5019797;28;20124;-63
2021/12/30 00:18:11;;;;;;;18.38;11.52;;;7.50;99.90;;;;;;5003207;28;20153;-63
2021/12/30 00:20:38;;;;;;;27.83;13.15;;;7.50;99.90;;;;;;4991577;28;20049;-63
2021/12/30 00:23:06;;;;;;;26.65;12.60;;;7.50;99.90;;;;;;5001285;28;20025;-63
2021/12/30 00:25:38;;;;;;;15.18;11.00;;;7.50;99.90;;;;;;4999694;28;20692;-63
2021/12/30 00:28:11;;;;;;;17.73;10.95;;;7.50;99.90;;;;;;5000410;28;20224;-63
2021/12/30 00:30:37;;;;;;;13.68;10.20;;;7.60;99.90;;;;;;5002428;28;20129;-63
2021/12/30 00:33:02;;;;;;;13.10;9.98;;;7.60;99.90;;;;;;5001658;28;20022;-63
2021/12/30 00:35:28;;;;;;;11.30;9.15;;;7.60;99.90;;;;;;5001565;28;20041;-63
2021/12/30 00:37:54;;;;;;;12.68;10.50;;;7.60;99.90;;;;;;4999955;28;20033;-64
2021/12/30 00:40:20;;;;;;;16.30;10.38;;;7.60;99.90;;;;;;5000880;28;20508;-63
2021/12/30 00:42:45;;;;;;;13.48;9.32;;;7.60;99.90;;;;;;5000701;28;20030;-64
2021/12/30 00:45:11;;;;;;;15.20;9.77;;;7.60;99.90;;;;;;5003182;28;20026;-63
2021/12/30 00:47:43;;;;;;;14.15;9.63;;;7.60;99.90;;;;;;5001963;28;20010;-63
2021/12/30 00:50:11;;;;;;;12.32;8.65;;;7.70;99.90;;;;;;4996296;28;20056;-63
2021/12/30 00:52:36;;;;;;;13.32;9.38;;;7.60;99.90;;;;;;5000996;28;20042;-63
2021/12/30 00:55:04;;;;;;;13.07;9.07;;;7.60;99.90;;;;;;5001495;28;20041;-64
2021/12/30 00:57:30;;;;;;;11.32;8.18;;;7.60;99.90;;;;;;5002338;28;20045;-64
2021/12/30 00:59:56;;;;;;;11.05;7.30;;;7.60;99.90;;;;;;5000970;28;20088;-63
2021/12/30 01:02:22;;;;;;;9.68;7.40;;;7.70;99.90;;;;;;5001301;28;20030;-63
2021/12/30 01:04:47;;;;;;;6.97;6.05;;;7.70;99.90;;;;;;5001649;28;20548;-63
2021/12/30 01:07:16;;;;;;;8.27;6.63;;;7.70;99.90;;;;;;4999900;28;20038;-63
2021/12/30 01:09:41;;;;;;;8.18;6.50;;;7.80;99.90;;;;;;4999496;28;20022;-63
2021/12/30 01:12:18;;;;;;;8.20;6.07;;;7.80;99.90;;;;;;5005704;28;20032;-63
2021/12/30 01:14:46;;;;;;;8.23;6.93;;;7.80;99.90;;;;;;5000299;28;20497;-63
2021/12/30 01:17:21;;;;;;;7.45;5.93;;;7.80;99.90;;;;;;5000013;28;20036;-63
2021/12/30 01:19:51;;;;;;;8.63;6.80;;;7.80;99.90;;;;;;5000549;28;20022;-63
2021/12/30 01:22:26;;;;;;;11.30;7.00;;;7.90;99.90;;;;;;4999792;28;20044;-63
2021/12/30 01:24:53;;;;;;;7.47;6.57;;;7.80;99.90;;;;;;5001996;28;20030;-63
2021/12/30 01:27:20;;;;;;;7.57;6.68;;;7.80;99.90;;;;;;5001491;28;20057;-63
2021/12/30 01:29:48;;;;;;;7.88;6.30;;;7.80;99.90;;;;;;5004799;28;20948;-63
2021/12/30 01:32:14;;;;;;;8.43;7.28;;;7.80;99.90;;;;;;4999859;28;20068;-63
2021/12/30 01:34:40;;;;;;;8.45;6.80;;;7.80;99.90;;;;;;5002597;28;20057;-63
2021/12/30 01:37:06;;;;;;;10.82;7.70;;;7.90;99.90;;;;;;4999606;28;20022;-63
2021/12/30 01:39:36;;;;;;;10.52;7.25;;;7.90;99.90;;;;;;4998879;28;20513;-63
2021/12/30 01:42:07;;;;;;;7.13;6.22;;;7.90;99.90;;;;;;5002962;28;20038;-63
2021/12/30 01:44:33;;;;;;;9.10;7.82;;;8.00;99.90;;;;;;5001171;28;20192;-63
2021/12/30 01:47:08;;;;;;;9.20;6.85;;;8.00;99.90;;;;;;4998480;28;20030;-63
2021/12/30 01:49:34;;;;;;;10.32;6.55;;;8.00;99.90;;;;;;5000393;28;20168;-63
2021/12/30 01:52:00;;;;;;;10.68;9.63;;;8.00;99.90;;;;;;5014554;28;20057;-63
2021/12/30 01:54:27;;;;;;;8.75;7.95;;;8.00;99.90;;;;;;5004011;28;21146;-63
2021/12/30 01:57:06;;;;;;;10.30;9.32;;;8.00;99.90;;;;;;5005332;28;20029;-64
2021/12/30 01:59:32;;;;;;;11.73;10.52;;;8.10;99.90;;;;;;5002163;28;20038;-63
2021/12/30 02:02:07;;;;;;;15.57;13.68;;;8.10;99.90;;;;;;5004887;28;20580;-63
2021/12/30 02:04:33;;;;;;;13.23;9.45;;;8.10;99.90;;;;;;5001964;28;20034;-63
2021/12/30 02:07:09;;;;;;;14.20;9.32;;;8.20;99.90;;;;;;5005327;28;20045;-63
2021/12/30 02:09:35;;;;;;;12.80;9.95;;;8.20;99.90;;;;;;5002308;28;20026;-63
2021/12/30 02:12:01;;;;;;;18.08;13.80;;;8.30;99.90;;;;;;4997022;28;20638;-63
2021/12/30 02:14:36;;;;;;;13.40;10.80;;;8.30;99.90;;;;;;5004825;28;20502;-63
2021/12/30 02:17:06;;;;;;;15.25;12.02;;;8.40;99.90;;;;;;5002895;28;20026;-63
2021/12/30 02:19:32;;;;;;;13.18;11.52;;;8.40;99.90;;;;;;5002033;28;20026;-63
2021/12/30 02:21:58;;;;;;;12.73;10.35;;;8.40;99.90;;;;;;5004272;28;20606;-63
2021/12/30 02:24:24;;;;;;;14.73;12.48;;;8.50;99.90;;;;;;5005818;28;20052;-64
2021/12/30 02:26:51;;;;;;;12.32;10.43;;;8.50;99.90;;;;;;5006796;28;20026;-63
2021/12/30 02:29:17;;;;;;;9.43;7.80;;;8.40;99.90;;;;;;5003836;28;21170;-63
2021/12/30 02:31:43;;;;;;;10.30;7.80;;;8.40;99.90;;;;;;5005030;28;20128;-64
2021/12/30 02:34:09;;;;;;;13.18;8.48;;;8.40;99.90;;;;;;5004785;28;20117;-63
2021/12/30 02:36:37;;;;;;;10.63;7.93;;;8.40;99.90;;;;;;5001375;28;20477;-63
2021/12/30 02:39:06;;;;;;;8.25;7.45;;;8.40;99.90;;;;;;5006743;28;20436;-63
2021/12/30 02:41:34;;;;;;;9.90;7.88;;;8.30;99.90;;;;;;5006027;28;20109;-63
2021/12/30 02:44:01;;;;;;;9.32;8.15;;;8.30;99.90;;;;;;5001761;28;20030;-63
2021/12/30 02:46:31;;;;;;;11.40;8.20;;;8.40;99.90;;;;;;5004529;28;20044;-63
2021/12/30 02:48:58;;;;;;;10.27;8.05;;;8.40;99.90;;;;;;5003361;28;20080;-63
2021/12/30 02:51:24;;;;;;;10.93;8.52;;;8.40;99.90;;;;;;5002667;28;20053;-63
2021/12/30 02:53:51;;;;;;;12.48;7.80;;;8.50;99.90;;;;;;5004152;28;20040;-64
2021/12/30 02:56:17;;;;;;;8.98;8.07;;;8.50;99.90;;;;;;5003914;28;20712;-64
2021/12/30 02:58:43;;;;;;;10.45;8.02;;;8.50;99.90;;;;;;5004000;28;20481;-63
2021/12/30 03:01:15;;;;;;;10.52;8.82;;;8.40;99.90;;;;;;5003399;28;20022;-63
2021/12/30 03:03:41;;;;;;;10.30;8.25;;;8.30;99.90;;;;;;5002312;28;20048;-63
2021/12/30 03:06:09;;;;;;;10.75;8.27;;;8.20;99.90;;;;;;5001993;28;20036;-63
2021/12/30 03:08:36;;;;;;;12.70;8.40;;;8.20;99.90;;;;;;5002807;28;20038;-63
2021/12/30 03:11:03;;;;;;;11.48;9.73;;;8.10;99.90;;;;;;5001180;28;20029;-63
2021/12/30 03:13:31;;;;;;;15.07;10.10;;;8.10;99.90;;;;;;5003935;28;20037;-63
2021/12/30 03:16:25;;;;;;;11.77;8.50;;;8.10;99.90;;;;;;5001623;28;20830;-63
2021/12/30 03:18:52;;;;;;;23.48;11.05;;;8.10;99.90;;;;;;4997374;28;20650;-64
2021/12/30 03:21:20;;;;;;;16.23;9.90;;;8.10;99.90;;;;;;5006022;28;20108;-63
2021/12/30 03:23:47;;;;;;;15.02;10.18;;;8.10;99.90;;;;;;5004660;28;20049;-63
2021/12/30 03:26:13;;;;;;;22.55;11.82;;;8.10;99.90;;;;;;5002004;28;20037;-63
2021/12/30 03:28:40;;;;;;;21.48;13.00;;;8.20;99.90;;;;;;5003435;28;20112;-63
2021/12/30 03:31:10;;;;;;;19.50;12.10;;;8.30;99.90;;;;;;5002271;28;20037;-64
2021/12/30 03:33:36;;;;;;;19.00;11.27;;;8.40;99.90;;;;;;5004016;28;20056;-63
2021/12/30 03:36:03;;;;;;;18.10;8.85;;;8.40;99.90;;;;;;5003834;28;20044;-63
2021/12/30 03:38:31;;;;;;;13.55;8.35;;;8.50;99.90;;;;;;5001551;28;20034;-63
2021/12/30 03:40:58;;;;;;;11.05;8.43;;;8.60;99.90;;;;;;5002208;28;20040;-63
2021/12/30 03:43:24;;;;;;;14.40;7.65;;;8.70;99.90;;;;;;5005137;28;20026;-63
2021/12/30 03:45:50;;;;;;;12.20;8.43;;;8.80;99.90;;;;;;5003774;28;20569;-62
2021/12/30 03:48:15;;;;;;;7.82;6.57;;;8.90;99.90;;;;;;5003587;28;20097;-62
2021/12/30 03:50:44;;;;;;;9.75;7.03;;;9.00;99.90;;;;;;5002702;28;20449;-63
2021/12/30 03:53:11;;;;;;;9.00;5.80;;;9.10;99.90;;;;;;5003519;28;20045;-63
2021/12/30 03:55:37;;;;;;;9.15;6.38;;;9.10;99.90;;;;;;5002094;28;20045;-63
2021/12/30 03:58:03;;;;;;;8.27;5.72;;;9.10;99.90;;;;;;5000550;28;20034;-63
2021/12/30 04:00:31;;;;;;;10.30;6.72;;;9.10;99.90;;;;;;5006064;28;20038;-63
2021/12/30 04:02:56;;;;;;;8.13;4.75;;;9.20;99.90;;;;;;5005628;28;20029;-63
2021/12/30 04:05:23;;;;;;;9.70;3.78;;;9.20;99.90;;;;;;4999830;28;20026;-63
2021/12/30 04:07:49;;;;;;;12.07;4.22;;;9.30;99.90;;;;;;5003240;28;20029;-64
2021/12/30 04:10:17;;;;;;;10.70;3.47;;;9.30;99.90;;;;;;4999528;28;20042;-63
2021/12/30 04:12:44;;;;;;;7.88;3.53;;;9.40;99.90;;;;;;4998473;28;20025;-63
2021/12/30 04:15:10;;;;;;;9.20;3.35;;;9.40;99.90;;;;;;4999795;28;20037;-63
2021/12/30 04:17:36;;;;;;;10.07;3.15;;;9.40;99.90;;;;;;4999982;28;20053;-63
2021/12/30 04:20:04;;;;;;;8.40;3.10;;;9.50;99.90;;;;;;5001791;28;20053;-63
2021/12/30 04:22:30;;;;;;;5.32;2.78;;;9.50;99.90;;;;;;5002070;28;20026;-64
2021/12/30 04:24:55;;;;;;;9.60;3.30;;;9.50;99.90;;;;;;5002550;28;20076;-63
2021/12/30 04:27:21;;;;;;;4.93;2.88;;;9.50;99.90;;;;;;5002390;28;20416;-63
2021/12/30 04:29:46;;;;;;;6.95;3.30;;;9.50;99.90;;;;;;5001724;28;20018;-64
2021/12/30 04:32:12;;;;;;;5.38;2.60;;;9.60;99.90;;;;;;4999798;28;20397;-63
2021/12/30 04:34:38;;;;;;;5.03;2.33;;;9.60;99.90;;;;;;5003044;28;20661;-63
2021/12/30 04:37:03;;;;;;;7.57;2.30;;;9.50;99.90;;;;;;5002124;28;20030;-63
2021/12/30 04:39:31;;;;;;;5.43;2.15;;;9.50;99.90;;;;;;5001547;28;20038;-63
2021/12/30 04:42:09;;;;;;;4.40;2.22;;;9.60;99.90;;;;;;5000843;28;20022;-63
2021/12/30 04:44:35;;;;;;;7.15;2.13;;;9.60;99.90;;;;;;4999971;28;20124;-63
2021/12/30 04:47:10;;;;;;;6.88;2.47;;;9.50;99.90;;;;;;5000768;28;20125;-63
2021/12/30 04:49:36;;;;;;;10.23;2.40;;;9.50;99.90;;;;;;5001099;28;20835;-63
2021/12/30 04:52:08;;;;;;;6.35;2.33;;;9.50;99.90;;;;;;5003605;28;20041;-63
2021/12/30 04:54:33;;;;;;;7.90;2.08;;;9.50;99.90;;;;;;4998973;28;20050;-63
2021/12/30 04:57:08;;;;;;;7.22;2.03;;;9.50;99.90;;;;;;5002972;28;20033;-63
2021/12/30 04:59:34;;;;;;;11.98;2.78;;;9.50;99.90;;;;;;5001664;28;20500;-63
2021/12/30 05:01:59;;;;;;;4.75;2.17;;;9.50;99.90;;;;;;5002720;28;20030;-63
2021/12/30 05:04:25;;;;;;;6.57;1.90;;;9.50;99.90;;;;;;5003260;28;20543;-63
2021/12/30 05:06:51;;;;;;;7.05;2.67;;;9.40;99.90;;;;;;5000864;28;20034;-63
2021/12/30 05:09:16;;;;;;;11.48;2.72;;;9.40;99.90;;;;;;5001044;28;20025;-63
2021/12/30 05:11:42;;;;;;;7.30;2.70;;;9.40;99.90;;;;;;5002630;28;20031;-63
2021/12/30 05:14:12;;;;;;;9.32;2.17;;;9.40;99.90;;;;;;4999749;28;20046;-63
2021/12/30 05:16:39;;;;;;;11.40;2.83;;;9.40;99.90;;;;;;5000458;28;20105;-63
2021/12/30 05:19:05;;;;;;;5.55;2.30;;;9.40;99.90;;;;;;5000232;28;20026;-62
2021/12/30 05:21:32;;;;;;;8.73;2.97;;;9.30;99.90;;;;;;5002710;28;20187;-63
2021/12/30 05:23:57;;;;;;;5.60;2.65;;;9.30;99.90;;;;;;5002439;28;20017;-63
2021/12/30 05:26:27;;;;;;;8.88;2.17;;;9.30;99.90;;;;;;5001428;28;20149;-63
2021/12/30 05:28:57;;;;;;;4.90;2.13;;;9.30;99.90;;;;;;4998822;28;20085;-63
2021/12/30 05:31:23;;;;;;;12.02;2.20;;;9.40;99.90;;;;;;5002254;28;20762;-63
2021/12/30 05:33:49;;;;;;;7.22;2.35;;;9.40;99.90;;;;;;4998727;28;20026;-63
2021/12/30 05:36:15;;;;;;;12.25;2.38;;;9.40;99.90;;;;;;5001614;28;20066;-63
2021/12/30 05:38:40;;;;;;;8.65;2.00;;;9.40;99.90;;;;;;5000244;28;20739;-63
2021/12/30 05:41:06;;;;;;;7.53;2.88;;;9.40;99.90;;;;;;5001311;28;20133;-63
2021/12/30 05:43:32;;;;;;;7.78;2.35;;;9.40;99.90;;;;;;5000938;28;20030;-62
2021/12/30 05:45:57;;;;;;;5.90;2.03;;;9.40;99.90;;;;;;4999735;28;20030;-63
2021/12/30 05:48:23;;;;;;;4.78;2.40;;;9.40;99.90;;;;;;4997449;28;20054;-62
2021/12/30 05:50:49;;;;;;;5.10;2.15;;;9.40;99.90;;;;;;4996578;28;20032;-63
2021/12/30 05:53:15;;;;;;;6.03;2.10;;;9.40;99.90;;;;;;5001010;28;20490;-63
2021/12/30 05:55:40;;;;;;;6.93;2.08;;;9.40;99.90;;;;;;5005509;28;20429;-63
2021/12/30 05:58:06;;;;;;;6.28;2.22;;;9.40;99.90;;;;;;4999556;28;20759;-63
2021/12/30 06:00:32;;;;;;;5.28;1.90;;;9.40;99.90;;;;;;5002701;28;20026;-63
2021/12/30 06:02:59;;;;;;;6.85;1.70;;;9.40;99.90;;;;;;4998450;28;20520;-63
2021/12/30 06:05:25;;;;;;;5.13;2.03;;;9.40;99.90;;;;;;5000422;28;20041;-63
2021/12/30 06:07:52;;;;;;;4.20;1.88;;;9.40;99.90;;;;;;4996326;28;20446;-62
2021/12/30 06:10:18;;;;;;;10.55;1.95;;;9.40;99.90;;;;;;4999535;28;20089;-63
2021/12/30 06:12:45;;;;;;;14.23;2.35;;;9.40;99.90;;;;;;5001673;28;20057;-63
2021/12/30 06:15:11;;;;;;;6.07;1.85;;;9.40;99.90;;;;;;5004444;28;20029;-63
2021/12/30 06:17:37;;;;;;;6.00;1.88;;;9.40;99.90;;;;;;5001133;28;20030;-63
2021/12/30 06:20:09;;;;;;;5.18;2.00;;;9.40;99.90;;;;;;5000786;28;20421;-63
2021/12/30 06:22:35;;;;;;;6.22;1.63;;;9.40;99.90;;;;;;4997976;28;20035;-63
2021/12/30 06:25:03;;;;;;;9.20;2.33;;;9.40;99.90;;;;;;5002739;28;20037;-62
2021/12/30 06:27:29;;;;;;;3.38;1.45;;;9.40;99.90;;;;;;5001994;28;20373;-63
2021/12/30 06:29:54;;;;;;;7.22;2.67;;;9.40;99.90;;;;;;5002531;28;20018;-63
2021/12/30 06:32:20;;;;;;;6.65;1.85;;;9.40;99.90;;;;;;5000473;28;20585;-63
2021/12/30 06:34:45;;;;;;;8.18;2.08;;;9.40;99.90;;;;;;4997559;28;20029;-63
2021/12/30 06:37:11;;;;;;;7.70;1.75;;;9.40;99.90;;;;;;5002023;28;20061;-63
2021/12/30 06:39:37;;;;;;;4.60;1.70;;;9.40;99.90;;;;;;5004078;28;20627;-63
2021/12/30 06:42:06;;;;;;;10.20;2.88;;;9.40;99.90;;;;;;5001926;28;20034;-63
2021/12/30 06:44:32;;;;;;;9.07;1.35;;;9.40;99.90;;;;;;5003968;28;20532;-63
2021/12/30 06:47:00;;;;;;;8.13;2.67;;;9.40;99.90;;;;;;5005638;28;20022;-63
2021/12/30 06:49:26;;;;;;;4.90;1.40;;;9.30;99.90;;;;;;5002630;28;20453;-63
2021/12/30 06:51:52;;;;;;;6.90;1.83;;;9.40;99.90;;;;;;5003667;28;20034;-63
2021/12/30 06:54:17;;;;;;;3.15;1.50;;;9.40;99.90;;;;;;5002581;28;20092;-63
2021/12/30 06:56:44;;;;;;;3.83;1.75;;;9.40;99.90;;;;;;5003751;28;20497;-62
2021/12/30 06:59:15;;;;;;;5.50;1.65;;;9.40;99.90;;;;;;5002939;28;20128;-63
2021/12/30 07:01:43;;;;;;;7.22;1.98;;;9.40;99.90;;;;;;5004868;28;20040;-63
2021/12/30 07:04:09;;;;;;;6.55;1.85;;;9.40;99.90;;;;;;5002214;28;20394;-63
2021/12/30 07:06:34;;;;;;;7.72;1.92;;;9.40;99.90;;;;;;5002429;28;20034;-63
2021/12/30 07:09:00;;;;;;;7.20;1.80;;;9.40;99.90;;;;;;5004423;28;20905;-63
2021/12/30 07:11:26;;;;;;;6.65;2.05;;;9.40;99.90;;;;;;5004688;28;20034;-63
2021/12/30 07:13:51;;;;;;;7.88;2.00;;;9.40;99.90;;;;;;5000909;28;20030;-63
2021/12/30 07:16:17;;;;;;;10.30;2.75;;;9.40;99.90;;;;;;5005876;28;20026;-63
2021/12/30 07:18:43;;;;;;;10.82;1.98;;;9.40;99.90;;;;;;5002972;28;20028;-63
2021/12/30 07:21:08;;;;;;;6.82;2.65;;;9.40;99.90;;;;;;5006514;28;20465;-63
2021/12/30 07:23:34;;;;;;;9.43;2.30;;;9.40;99.90;;;;;;5003195;28;20095;-63
2021/12/30 07:26:00;;;;;;;6.97;1.70;;;9.40;99.90;;;;;;5003699;28;20026;-63
2021/12/30 07:28:25;;;;;;;8.98;2.13;;;9.40;99.90;;;;;;5003429;28;20041;-63
2021/12/30 07:30:51;;;;;;;4.13;1.55;;;9.50;99.90;;;;;;5002960;28;20545;-63
2021/12/30 07:33:17;;;;;;;7.30;1.95;;;9.50;99.90;;;;;;5005608;28;20034;-64
2021/12/30 07:35:43;;;;;;;7.30;1.90;;;9.50;99.90;;;;;;5003083;28;20718;-63
2021/12/30 07:38:09;;;;;;;7.03;2.00;;;9.50;99.90;;;;;;5003663;28;20561;-63
2021/12/30 07:40:34;;;;;;;4.97;1.90;;;9.40;99.90;;;;;;5017223;28;20026;-63
2021/12/30 07:43:00;;;;;;;6.90;1.67;;;9.40;99.90;;;;;;5003683;28;20505;-62
2021/12/30 07:45:26;;;;;;;6.78;2.05;;;9.40;99.90;;;;;;5002228;28;20030;-63
2021/12/30 07:47:53;;;;;;;4.68;1.70;;;9.40;99.90;;;;;;4999965;28;20006;-63
2021/12/30 07:50:19;;;;;;;4.55;1.90;;;9.50;99.90;;;;;;4997133;28;20036;-63
2021/12/30 07:52:45;;;;;;;3.42;1.48;;;9.50;99.90;;;;;;5017132;28;20375;-63
2021/12/30 07:55:13;;;;;;;10.15;2.28;;;9.50;99.90;;;;;;5003327;28;20048;-63
2021/12/30 07:57:40;;;;;;;9.98;2.15;;;9.50;99.90;;;;;;5002222;28;20060;-62
2021/12/30 08:00:09;;;;;;;5.78;1.50;;;9.50;99.90;;;;;;5002978;28;20049;-63
2021/12/30 08:02:35;;;;;;;8.68;1.77;;;9.50;99.90;;;;;;5002320;28;20034;-63
2021/12/30 08:05:00;;;;;;;5.00;1.90;;;9.50;99.90;;;;;;5001965;28;20381;-63
2021/12/30 08:07:26;;;;;;;6.88;1.40;;;9.60;99.90;;;;;;5003942;28;20041;-63
2021/12/30 08:09:53;;;;;;;6.75;1.92;;;9.60;99.90;;;;;;5000980;28;20030;-63
2021/12/30 08:12:18;;;;;;;7.30;1.55;;;9.60;99.90;;;;;;5002824;28;20489;-63
2021/12/30 08:14:44;;;;;;;7.97;1.40;;;9.60;99.90;;;;;;5003407;28;20022;-63
2021/12/30 08:17:10;;;;;;;9.18;1.85;;;9.60;99.90;;;;;;5000148;28;20042;-63
2021/12/30 08:19:36;;;;;;;7.10;1.77;;;9.60;99.90;;;;;;5004263;28;20289;-63
2021/12/30 08:22:16;;;;;;;9.40;2.30;;;9.60;99.90;;;;;;4999764;28;20493;-63
2021/12/30 08:24:42;;;;;;;11.05;2.92;;;9.60;99.90;;;;;;4998838;28;20040;-63
2021/12/30 08:27:10;;;;;;;6.65;1.45;;;9.60;99.90;;;;;;5000557;28;20026;-63
2021/12/30 08:29:35;;;;;;;13.02;2.20;;;9.60;99.90;;;;;;5003983;28;20068;-63
2021/12/30 08:32:18;;;;;;;10.35;2.72;;;9.60;99.90;;;;;;5000050;28;20038;-63
2021/12/30 08:34:45;;;;;;;6.47;1.77;;;9.60;99.90;;;;;;4999595;28;20055;-63
2021/12/30 08:37:12;;;;;;;8.38;1.90;;;9.60;99.90;;;;;;5001352;28;20030;-63
2021/12/30 08:39:39;;;;;;;6.07;2.20;;;9.60;99.90;;;;;;5002540;28;20591;-63
2021/12/30 08:42:15;;;;;;;6.38;2.10;;;9.50;99.90;;;;;;5002076;28;20050;-63
2021/12/30 08:44:41;;;;;;;6.13;2.25;;;9.50;99.90;;;;;;4993303;28;20080;-64
2021/12/30 08:47:07;;;;;;;7.93;3.30;;;9.50;99.90;;;;;;5001269;28;20026;-63
2021/12/30 08:49:32;;;;;;;8.30;3.00;;;9.50;99.90;;;;;;5002331;28;20026;-63
2021/12/30 08:52:09;;;;;;;8.02;4.45;;;9.50;99.90;;;;;;5001584;28;20040;-63
2021/12/30 08:54:35;;;;;;;7.53;2.35;;;9.50;99.90;;;;;;5000003;28;20157;-63
2021/12/30 08:57:07;;;;;;;4.78;2.17;;;9.50;99.90;;;;;;5003682;28;20018;-63
2021/12/30 08:59:34;;;;;;;11.52;2.80;;;9.50;99.90;;;;;;5000496;28;20489;-63
2021/12/30 09:02:08;;;;;;;8.02;2.72;;;9.50;99.90;;;;;;5000823;28;20037;-64
2021/12/30 09:04:34;;;;;;;7.03;3.13;;;9.50;99.90;;;;;;5000743;28;21329;-63
2021/12/30 09:07:00;;;;;;;6.72;3.28;;;9.60;99.90;;;;;;4999677;28;20034;-63
2021/12/30 09:09:27;;;;;;;10.05;3.63;;;9.60;99.90;;;;;;5000079;28;20420;-63
2021/12/30 09:12:08;;;;;;;8.77;3.25;;;9.60;99.90;;;;;;5001842;28;20034;-63
2021/12/30 09:14:34;;;;;;;7.85;2.92;;;9.50;99.90;;;;;;4998883;28;20088;-63
2021/12/30 09:17:00;;;;;;;8.48;2.60;;;9.60;99.90;;;;;;4999496;28;20030;-64
2021/12/30 09:19:25;;;;;;;10.27;2.42;;;9.60;99.90;;;;;;5000588;28;20026;-64
2021/12/30 09:21:51;;;;;;;6.30;3.47;;;9.60;99.90;;;;;;5001348;28;20110;-64
2021/12/30 09:24:18;;;;;;;7.70;4.10;;;9.60;99.90;;;;;;4999395;28;20048;-64
2021/12/30 09:26:43;;;;;;;8.40;3.22;;;9.60;99.90;;;;;;4997116;28;20057;-64
2021/12/30 09:29:12;;;;;;;7.20;3.10;;;9.60;99.90;;;;;;5002481;28;20190;-64
2021/12/30 09:31:47;;;;;;;16.58;8.27;;;9.70;99.90;;;;;;5002289;28;20094;-64
2021/12/30 09:34:13;;;;;;;10.40;3.10;;;9.70;99.90;;;;;;5002560;28;20112;-63
2021/12/30 09:36:40;;;;;;;9.07;8.05;;;9.70;99.90;;;;;;4999660;28;20034;-64
2021/12/30 09:39:08;;;;;;;7.20;2.47;;;9.70;99.90;;;;;;5000185;28;20057;-64
2021/12/30 09:41:37;;;;;;;17.65;4.63;;;9.70;99.90;;;;;;4999074;28;20037;-63
2021/12/30 09:44:04;;;;;;;8.15;3.47;;;9.80;99.90;;;;;;5001186;28;20050;-64
2021/12/30 09:46:30;;;;;;;4.45;2.85;;;9.80;99.90;;;;;;5000060;28;20657;-64
2021/12/30 09:48:55;;;;;;;11.18;4.32;;;9.80;99.90;;;;;;4999782;28;20041;-64
2021/12/30 09:51:21;;;;;;;7.88;3.63;;;9.80;99.90;;;;;;5003328;28;20034;-64
2021/12/30 09:53:51;;;;;;;6.35;2.88;;;9.90;99.90;;;;;;4998678;28;20041;-64
2021/12/30 09:56:18;;;;;;;12.25;3.20;;;9.90;99.90;;;;;;5000146;28;20034;-64
2021/12/30 09:58:44;;;;;;;6.80;3.22;;;9.90;99.90;;;;;;4999331;28;20038;-64
2021/12/30 10:01:09;;;;;;;23.55;13.52;;;10.00;99.90;;;;;;5001987;28;20061;-64
2021/12/30 10:03:35;;;;;;;11.73;9.68;;;10.00;99.90;;;;;;5000352;28;20485;-65
2021/12/30 10:06:10;;;;;;;6.28;3.17;;;10.00;99.90;;;;;;5000817;28;20026;-64
2021/12/30 10:08:41;;;;;;;5.80;2.83;;;10.00;99.90;;;;;;5001362;28;20057;-64
2021/12/30 10:11:13;;;;;;;8.50;2.28;;;10.10;99.90;;;;;;4997696;28;20201;-64
2021/12/30 10:13:48;;;;;;;19.50;5.18;;;10.20;99.90;;;;;;5001861;28;20026;-63
2021/12/30 10:16:18;;;;;;;3.97;2.97;;;10.20;99.90;;;;;;5001054;28;20034;-64
2021/12/30 10:18:46;;;;;;;5.88;5.10;;;10.30;99.90;;;;;;5003869;28;20435;-64
2021/12/30 10:21:14;;;;;;;4.50;3.15;;;10.30;99.90;;;;;;5003520;28;20057;-64
2021/12/30 10:23:49;;;;;;;3.60;2.38;;;10.30;99.90;;;;;;5004187;28;20501;-65
2021/12/30 10:26:15;;;;;;;4.03;3.38;;;10.40;99.90;;;;;;5003168;28;20122;-64
2021/12/30 10:28:43;;;;;;;5.25;3.85;;;10.50;99.90;;;;;;5003414;28;20490;-64
2021/12/30 10:31:12;;;;;;;8.10;6.55;;;10.50;99.90;;;;;;5003111;28;21054;-64
2021/12/30 10:34:04;;;;;;;4.53;2.97;;;10.50;99.90;;;;;;5005194;28;20608;-64
2021/12/30 10:36:44;;;;;;;5.05;3.28;;;10.60;99.90;;;;;;5004101;28;20034;-64
2021/12/30 10:39:28;;;;;;;7.82;6.30;;;10.60;99.90;;;;;;5002790;28;20109;-64
2021/12/30 10:42:19;;;;;;;5.82;2.95;;;10.70;99.90;;;;;;5020018;28;20482;-63
2021/12/30 10:44:53;;;;;;;4.05;2.85;;;10.70;99.90;;;;;;5004097;28;20064;-63
2021/12/30 10:47:25;;;;;;;2.55;2.15;;;10.80;99.90;;;;;;5003510;28;20041;-65
2021/12/30 10:50:03;;;;;;;5.20;2.00;;;10.90;99.90;;;;;;5018427;28;20276;-64
2021/12/30 10:52:29;;;;;;;2.35;1.95;;;11.00;99.90;;;;;;4996834;28;20037;-63
2021/12/30 10:54:56;;;;;;;2.97;2.40;;;11.10;99.90;;;;;;5003217;28;20085;-64
2021/12/30 10:57:28;;;;;;;2.80;2.25;;;11.10;99.90;;;;;;5001904;28;20038;-64
2021/12/30 10:59:54;;;;;;;2.92;2.63;;;11.30;99.90;;;;;;5004325;28;20018;-64
2021/12/30 11:02:22;;;;;;;2.35;2.15;;;11.40;99.90;;;;;;5002603;28;20034;-64
2021/12/30 11:04:49;;;;;;;2.22;2.03;;;11.50;99.90;;;;;;5002487;28;20117;-64
2021/12/30 11:07:30;;;;;;;2.72;2.13;;;11.50;99.90;;;;;;5003871;28;20113;-64
2021/12/30 11:10:00;;;;;;;3.15;1.60;;;11.70;99.90;;;;;;5002581;28;20129;-64
2021/12/30 11:12:29;;;;;;;2.13;1.50;;;11.80;99.90;;;;;;5003304;28;20034;-64
2021/12/30 11:14:56;;;;;;;1.95;1.80;;;11.90;99.90;;;;;;5003716;28;20021;-64
2021/12/30 11:17:32;;;;;;;1.40;1.30;;;12.00;99.90;;;;;;5003895;28;20121;-64
2021/12/30 11:20:07;;;;;;;1.60;1.50;;;12.10;99.90;;;;;;5003267;28;20025;-64
2021/12/30 11:22:39;;;;;;;1.58;1.48;;;12.10;99.90;;;;;;4999325;28;23475;-64
2021/12/30 11:25:06;;;;;;;;;;;12.20;99.90;;;;;;5004858;28;20627;-63
2021/12/30 11:27:34;;;;;;;1.25;1.15;;;12.20;99.90;;;;;;5000129;28;20483;-64
2021/12/30 11:30:04;;;;;;;1.27;1.08;;;12.30;99.90;;;;;;5002801;28;20117;-63
2021/12/30 11:32:32;;;;;;;1.40;1.30;;;12.40;99.90;;;;;;5000996;28;20408;-64
2021/12/30 11:34:59;;;;;;;2.35;1.10;;;12.40;99.90;;;;;;5002251;28;20034;-63
2021/12/30 11:37:26;;;;;;;1.27;1.10;;;12.50;99.90;;;;;;5001252;28;20022;-64
2021/12/30 11:39:55;;;;;;;2.10;1.42;;;12.60;99.90;;;;;;5005190;28;20601;-63
2021/12/30 11:42:23;;;;;;;1.10;1.00;;;12.70;99.90;;;;;;5000840;28;20092;-64
2021/12/30 11:44:58;;;;;;;0.82;0.80;;;12.80;99.90;;;;;;5019027;28;20568;-64
2021/12/30 11:47:41;;;;;;;0.70;0.70;;;12.80;99.90;;;;;;5000423;28;20088;-64
2021/12/30 11:50:08;;;;;;;1.08;0.98;;;12.90;99.90;;;;;;5001639;28;20084;-64
2021/12/30 11:53:09;;;;;;;0.82;0.82;;;12.90;99.90;;;;;;5003591;28;20996;-64
2021/12/30 11:55:40;;;;;;;1.10;0.97;;;13.00;99.90;;;;;;4957384;28;20529;-64
2021/12/30 11:58:49;;;;;;;0.90;0.90;;;13.10;99.90;;;;;;5000502;28;20291;-64
2021/12/30 12:01:13;;;;;;;1.67;0.90;;;13.20;99.90;;;;;;5004591;28;20110;-63
2021/12/30 12:03:44;;;;;;;0.65;0.65;;;13.20;99.90;;;;;;5016878;28;20038;-64
2021/12/30 12:06:27;;;;;;;0.65;0.65;;;13.20;99.90;;;;;;4997673;28;20064;-64
2021/12/30 12:08:58;;;;;;;0.90;0.80;;;13.20;99.90;;;;;;5017261;28;20470;-64
2021/12/30 12:11:25;;;;;;;1.70;0.80;;;13.20;99.90;;;;;;5001838;28;20041;-64
2021/12/30 12:13:56;;;;;;;1.00;0.68;;;13.30;99.90;;;;;;5002641;28;20030;-64
2021/12/30 12:16:41;;;;;;;;;;;13.30;99.90;;;;;;5000955;28;20218;-64
2021/12/30 12:19:09;;;;;;;0.70;0.70;;;13.30;99.90;;;;;;5002659;28;19976;-64
2021/12/30 12:21:46;;;;;;;0.88;0.80;;;13.40;99.90;;;;;;5002780;28;20038;-64
2021/12/30 12:24:20;;;;;;;0.80;0.80;;;13.40;99.90;;;;;;5000327;28;20030;-64
2021/12/30 12:26:47;;;;;;;1.10;0.70;;;13.40;99.90;;;;;;4999688;28;20033;-64
2021/12/30 12:29:48;;;;;;;1.25;0.77;;;13.40;99.90;;;;;;5002500;28;21145;-64
2021/12/30 12:32:18;;;;;;;;;;;13.40;99.90;;;;;;5014299;28;20046;-64
2021/12/30 12:34:50;;;;;;;0.80;0.80;;;13.40;99.90;;;;;;5002590;28;19940;-64
2021/12/30 12:37:32;;;;;;;1.00;0.88;;;13.40;99.90;;;;;;5017863;28;20404;-64
2021/12/30 12:40:10;;;;;;;0.82;0.80;;;13.30;99.90;;;;;;5000259;28;20026;-64
2021/12/30 12:42:48;;;;;;;0.88;0.77;;;13.30;99.90;;;;;;5001983;28;20026;-64
2021/12/30 12:45:35;;;;;;;0.93;0.80;;;13.30;99.90;;;;;;5002672;28;20061;-65
2021/12/30 12:48:20;;;;;;;1.05;1.05;;;13.30;99.90;;;;;;5010281;28;20421;-63
2021/12/30 12:51:18;;;;;;;0.68;0.68;;;13.20;99.90;;;;;;5003812;28;20064;-64
2021/12/30 12:53:49;;;;;;;0.98;0.80;;;13.30;99.90;;;;;;5003379;28;20735;-63
2021/12/30 12:56:21;;;;;;;0.90;0.82;;;13.20;99.90;;;;;;5000837;28;20559;-63
2021/12/30 12:58:49;;;;;;;1.00;1.00;;;13.20;99.90;;;;;;5001014;28;20754;-64